Time;durP1;ratioP1;P1;durP2;ratioP2;P2;SDS_P1;SDS_P2;PMS_P1;PMS_P2;Temp;Humidity;BMP_temperature;BMP_pressure;BME280_temperature;BME280_humidity;BME280_pressure;Samples;Min_cycle;Max_cycle;Signal;HPM_P1;HPM_P2
2022/01/19 00:00:33;;;;;;;43.53;23.23;;;4.60;99.90;;;;;;5025116;28;20044;-80
2022/01/19 00:02:58;;;;;;;48.53;22.65;;;4.70;99.90;;;;;;5049655;28;20485;-79
2022/01/19 00:05:24;;;;;;;44.55;21.67;;;5.10;99.90;;;;;;5048741;28;20149;-79
2022/01/19 00:07:50;;;;;;;47.70;22.45;;;4.80;99.90;;;;;;5049971;28;20052;-80
2022/01/19 00:10:20;;;;;;;45.22;22.33;;;4.70;99.90;;;;;;5025945;28;20438;-80
2022/01/19 00:12:45;;;;;;;45.75;22.98;;;4.60;99.90;;;;;;5050437;28;20052;-80
2022/01/19 00:15:11;;;;;;;44.67;22.27;;;5.60;99.90;;;;;;5033633;28;20049;-79
2022/01/19 00:17:38;;;;;;;45.63;23.45;;;4.60;99.90;;;;;;5066176;28;20626;-80
2022/01/19 00:20:06;;;;;;;52.08;24.70;;;4.60;99.90;;;;;;5051092;28;20044;-80
2022/01/19 00:22:32;;;;;;;46.55;23.30;;;4.60;99.90;;;;;;5049672;28;20133;-80
2022/01/19 00:24:58;;;;;;;43.75;23.38;;;5.40;99.90;;;;;;5066763;28;20449;-79
2022/01/19 00:27:24;;;;;;;48.60;22.85;;;5.20;99.90;;;;;;5049505;28;20037;-80
2022/01/19 00:29:51;;;;;;;45.92;24.63;;;4.60;99.90;;;;;;5049862;28;20078;-81
2022/01/19 00:32:16;;;;;;;41.30;22.27;;;5.90;99.90;;;;;;5031940;28;20051;-79
2022/01/19 00:34:42;;;;;;;48.70;22.02;;;5.10;99.90;;;;;;5066098;28;20069;-79
2022/01/19 00:37:08;;;;;;;45.47;23.25;;;5.00;99.90;;;;;;5067026;28;20040;-80
2022/01/19 00:39:34;;;;;;;53.25;24.10;;;4.60;99.90;;;;;;5033113;28;20044;-79
2022/01/19 00:42:00;;;;;;;48.25;23.90;;;4.60;99.90;;;;;;5033143;28;20059;-80
2022/01/19 00:44:26;;;;;;;48.95;24.08;;;4.60;99.90;;;;;;5048488;28;20055;-79
2022/01/19 00:46:52;;;;;;;41.03;23.13;;;4.60;99.90;;;;;;5049796;28;20051;-79
2022/01/19 00:49:17;;;;;;;45.47;22.77;;;4.50;99.90;;;;;;5053462;28;20053;-79
2022/01/19 00:51:43;;;;;;;46.50;24.30;;;5.30;99.90;;;;;;5052017;28;20076;-79
2022/01/19 00:54:09;;;;;;;41.80;23.05;;;4.50;99.90;;;;;;5052551;28;20048;-80
2022/01/19 00:56:34;;;;;;;47.85;23.35;;;4.90;99.90;;;;;;5036594;28;20580;-79
2022/01/19 00:59:00;;;;;;;44.33;22.20;;;5.30;99.90;;;;;;5053416;28;20048;-79
2022/01/19 01:01:26;;;;;;;41.80;22.45;;;5.30;99.90;;;;;;5052249;28;20041;-80
2022/01/19 01:03:52;;;;;;;42.05;21.60;;;4.50;99.90;;;;;;5034979;28;20059;-79
2022/01/19 01:06:19;;;;;;;42.53;21.55;;;5.00;99.90;;;;;;5068887;28;20052;-79
2022/01/19 01:08:45;;;;;;;44.10;21.33;;;4.50;99.90;;;;;;5052526;28;20058;-79
2022/01/19 01:11:11;;;;;;;42.55;21.17;;;4.50;99.90;;;;;;5077803;28;20045;-79
2022/01/19 01:16:40;;;;;;;39.08;19.42;;;4.50;99.90;;;;;;5069242;28;20057;-80
2022/01/19 01:19:08;;;;;;;33.33;18.20;;;4.50;99.90;;;;;;5052543;28;20481;-79
2022/01/19 01:21:34;;;;;;;41.70;21.00;;;4.70;99.90;;;;;;5051963;28;20052;-79
2022/01/19 01:24:01;;;;;;;39.08;21.50;;;5.00;99.90;;;;;;5068747;28;20090;-79
2022/01/19 01:26:26;;;;;;;42.03;20.98;;;4.40;99.90;;;;;;5035395;28;20105;-80
2022/01/19 01:28:52;;;;;;;38.17;18.98;;;4.40;99.90;;;;;;5036003;28;20052;-79
2022/01/19 01:31:18;;;;;;;35.72;17.13;;;4.40;99.90;;;;;;5052674;28;20505;-79
2022/01/19 01:33:44;;;;;;;33.63;18.15;;;4.40;99.90;;;;;;5034553;28;20052;-79
2022/01/19 01:36:10;;;;;;;34.60;17.25;;;4.70;99.90;;;;;;5051861;28;20052;-79
2022/01/19 01:38:39;;;;;;;38.35;21.60;;;4.40;99.90;;;;;;5035026;28;20528;-80
2022/01/19 01:41:09;;;;;;;42.47;22.30;;;4.80;99.90;;;;;;5052480;28;20053;-80
2022/01/19 01:43:34;;;;;;;41.95;22.25;;;4.30;99.90;;;;;;5067638;28;20083;-80
2022/01/19 01:46:08;;;;;;;38.72;21.10;;;4.40;99.90;;;;;;5052505;28;20087;-79
2022/01/19 01:48:41;;;;;;;44.15;21.75;;;4.30;99.90;;;;;;5036423;28;20074;-79
2022/01/19 01:53:58;;;;;;;45.47;22.58;;;4.30;99.90;;;;;;5067466;28;20052;-79
2022/01/19 01:56:24;;;;;;;39.85;22.92;;;4.20;99.90;;;;;;5043640;28;20128;-79
2022/01/19 01:58:50;;;;;;;45.05;24.52;;;4.40;99.90;;;;;;5067384;28;20072;-79
2022/01/19 02:01:17;;;;;;;44.40;24.30;;;4.20;99.90;;;;;;5043024;28;20055;-79
2022/01/19 02:03:45;;;;;;;47.97;24.42;;;4.40;99.90;;;;;;5066920;28;20045;-79
2022/01/19 02:09:12;;;;;;;57.38;27.48;;;5.70;99.90;;;;;;5067551;28;20775;-79
2022/01/19 02:21:37;;;;;;;47.05;23.88;;;4.30;99.90;;;;;;5067287;28;20561;-79
2022/01/19 02:22:20;;;;;;;51.80;24.48;;;4.10;99.90;;;;;;5053415;28;20040;-80
2022/01/19 02:24:46;;;;;;;53.92;25.27;;;4.10;99.90;;;;;;5034612;28;20059;-79
2022/01/19 02:41:02;;;;;;;58.00;22.27;;;4.70;99.90;;;;;;4951389;28;20113;-79
2022/01/19 02:43:29;;;;;;;63.40;22.58;;;4.30;99.90;;;;;;5017746;28;20062;-80
2022/01/19 02:51:24;;;;;;;77.07;25.13;;;4.10;99.90;;;;;;5039159;28;20512;-79
2022/01/19 02:53:50;;;;;;;53.85;21.52;;;5.30;99.90;;;;;;5021236;28;20055;-79
2022/01/19 02:56:27;;;;;;;59.50;20.90;;;4.10;99.90;;;;;;5012380;28;20040;-79
2022/01/19 02:59:03;;;;;;;58.47;22.00;;;4.40;99.90;;;;;;5013065;28;20940;-79
2022/01/19 03:09:26;;;;;;;67.80;24.65;;;4.10;99.90;;;;;;5021235;28;20077;-79
2022/01/19 03:11:52;;;;;;;78.07;25.90;;;4.10;99.90;;;;;;5028428;28;20048;-79
2022/01/19 03:14:18;;;;;;;90.22;27.40;;;4.50;99.90;;;;;;4995242;28;20049;-79
2022/01/19 03:16:45;;;;;;;90.68;29.73;;;5.40;99.90;;;;;;5044220;28;20052;-79
2022/01/19 03:19:11;;;;;;;90.80;27.85;;;4.10;99.90;;;;;;5021227;28;20060;-79
2022/01/19 03:21:39;;;;;;;90.68;30.35;;;4.50;99.90;;;;;;5021221;28;20491;-79
2022/01/19 03:24:05;;;;;;;93.90;28.92;;;4.30;99.90;;;;;;5021109;28;20498;-80
2022/01/19 03:26:31;;;;;;;90.35;28.17;;;4.00;99.90;;;;;;5021724;28;20044;-79
2022/01/19 03:28:57;;;;;;;89.28;28.02;;;4.20;99.90;;;;;;5036652;28;20048;-79
2022/01/19 03:31:23;;;;;;;92.60;26.85;;;4.70;99.90;;;;;;5021198;28;20107;-79
2022/01/19 03:33:49;;;;;;;78.75;26.52;;;5.10;99.90;;;;;;5034301;28;20525;-79
2022/01/19 03:36:17;;;;;;;77.65;26.00;;;5.50;99.90;;;;;;5043256;28;20443;-79
2022/01/19 03:38:43;;;;;;;71.40;25.45;;;4.60;99.90;;;;;;5059257;28;20052;-79
2022/01/19 03:41:09;;;;;;;80.47;24.75;;;4.10;99.90;;;;;;5076972;28;20036;-80
2022/01/19 03:43:35;;;;;;;66.30;22.73;;;4.80;99.90;;;;;;5041552;28;20052;-80
2022/01/19 03:46:04;;;;;;;75.68;23.92;;;4.10;99.90;;;;;;5058669;28;20055;-80
2022/01/19 03:48:42;;;;;;;68.07;25.85;;;2.90;99.90;;;;;;5042351;28;20044;-80
2022/01/19 03:51:09;;;;;;;74.10;24.45;;;4.10;99.90;;;;;;5062482;28;20050;-80
2022/01/19 03:53:35;;;;;;;67.80;25.05;;;4.10;99.90;;;;;;5057944;28;20048;-80
2022/01/19 03:56:01;;;;;;;72.70;22.85;;;4.70;99.90;;;;;;5059950;28;20043;-80
2022/01/19 03:58:27;;;;;;;60.63;22.63;;;4.20;99.90;;;;;;5057818;28;20040;-80
2022/01/19 04:00:56;;;;;;;63.80;22.40;;;5.20;99.90;;;;;;5059684;28;20048;-80
2022/01/19 04:03:35;;;;;;;67.40;23.92;;;4.00;99.90;;;;;;5028611;28;20127;-80
2022/01/19 04:06:14;;;;;;;65.82;23.55;;;4.10;99.90;;;;;;5059358;28;20388;-80
2022/01/19 04:08:40;;;;;;;57.72;21.52;;;4.00;99.90;;;;;;5029108;28;20049;-80
2022/01/19 04:11:05;;;;;;;72.90;25.35;;;4.80;99.90;;;;;;5044093;28;20185;-80
2022/01/19 04:13:57;;;;;;;71.32;23.80;;;4.10;99.90;;;;;;5042385;28;20505;-80
2022/01/19 04:16:17;;;;;;;62.03;23.37;;;4.40;99.90;;;;;;5061708;28;20086;-80
2022/01/19 04:18:42;;;;;;;68.78;23.42;;;4.10;99.90;;;;;;5075075;28;20342;-80
2022/01/19 04:21:08;;;;;;;74.57;23.55;;;4.10;99.90;;;;;;5025981;28;20048;-80
2022/01/19 04:23:34;;;;;;;67.93;24.15;;;5.20;99.90;;;;;;5045075;28;20040;-80
2022/01/19 04:25:59;;;;;;;63.20;23.50;;;5.60;99.90;;;;;;5063502;28;20047;-80
2022/01/19 04:28:25;;;;;;;64.32;23.98;;;4.10;99.90;;;;;;5061556;28;20082;-80
2022/01/19 04:30:51;;;;;;;73.32;24.90;;;4.70;99.90;;;;;;5064139;28;20130;-79
2022/01/19 04:33:22;;;;;;;66.50;24.98;;;5.30;99.90;;;;;;5062130;28;20383;-79
2022/01/19 04:35:54;;;;;;;73.13;26.45;;;4.80;99.90;;;;;;5079229;28;20139;-79
2022/01/19 04:49:11;;;;;;;68.00;25.17;;;5.30;99.90;;;;;;5062736;28;20092;-80
2022/01/19 05:05:18;;;;;;;68.45;23.63;;;4.10;99.90;;;;;;5062910;28;20054;-80
2022/01/19 05:15:42;;;;;;;63.78;23.23;;;4.10;99.90;;;;;;5064638;28;20047;-81
2022/01/19 05:18:08;;;;;;;56.10;23.00;;;4.00;99.90;;;;;;5062453;28;20047;-80
2022/01/19 05:20:34;;;;;;;61.22;24.00;;;4.10;99.90;;;;;;5061848;28;20055;-80
2022/01/19 05:23:00;;;;;;;66.30;23.67;;;4.60;99.90;;;;;;5027639;28;20048;-80
2022/01/19 05:25:26;;;;;;;61.65;24.27;;;4.80;99.90;;;;;;5061658;28;20086;-80
2022/01/19 05:27:52;;;;;;;59.72;23.85;;;4.10;99.90;;;;;;5062828;28;20044;-80
2022/01/19 05:30:18;;;;;;;56.70;23.98;;;4.20;99.90;;;;;;5062406;28;20401;-80
2022/01/19 05:32:45;;;;;;;59.95;22.98;;;4.20;99.90;;;;;;5077938;28;20044;-80
2022/01/19 05:35:10;;;;;;;62.33;23.70;;;4.20;99.90;;;;;;5042907;28;20507;-80
2022/01/19 05:37:36;;;;;;;50.55;23.58;;;4.10;99.90;;;;;;5044041;28;20052;-80
2022/01/19 05:40:07;;;;;;;50.10;22.42;;;5.00;99.90;;;;;;5062880;28;20478;-80
2022/01/19 05:42:33;;;;;;;55.42;23.83;;;4.20;99.90;;;;;;5061628;28;20058;-80
2022/01/19 05:44:59;;;;;;;59.55;23.48;;;5.30;99.90;;;;;;5077109;28;20056;-80
2022/01/19 05:47:25;;;;;;;53.60;22.05;;;4.60;99.90;;;;;;5061258;28;20083;-80
2022/01/19 05:49:51;;;;;;;60.03;22.10;;;4.20;99.90;;;;;;5044322;28;20968;-80
2022/01/19 05:52:17;;;;;;;45.83;22.35;;;4.20;99.90;;;;;;5062229;28;20049;-80
2022/01/19 05:54:43;;;;;;;62.83;24.00;;;4.40;99.90;;;;;;5059655;28;20536;-79
2022/01/19 05:57:09;;;;;;;54.30;24.02;;;4.60;99.90;;;;;;5059712;28;20049;-80
2022/01/19 05:59:35;;;;;;;63.78;24.73;;;4.20;99.90;;;;;;5077373;28;20489;-79
2022/01/19 06:02:01;;;;;;;55.08;23.10;;;4.20;99.90;;;;;;5060831;28;20543;-79
2022/01/19 06:04:27;;;;;;;61.00;25.58;;;4.30;99.90;;;;;;5061834;28;20048;-79
2022/01/19 06:06:55;;;;;;;63.92;25.63;;;4.80;99.90;;;;;;5044957;28;20048;-80
2022/01/19 06:09:35;;;;;;;60.55;24.58;;;4.30;99.90;;;;;;5078230;28;20089;-80
2022/01/19 06:12:04;;;;;;;58.03;23.35;;;4.70;99.90;;;;;;5077122;28;20051;-79
2022/01/19 06:14:31;;;;;;;55.40;23.52;;;4.30;99.90;;;;;;5045596;28;20051;-80
2022/01/19 06:16:58;;;;;;;54.50;23.13;;;5.30;99.90;;;;;;5076176;28;20052;-80
2022/01/19 06:19:23;;;;;;;62.30;24.90;;;4.30;99.90;;;;;;5060685;28;20047;-80
2022/01/19 06:21:49;;;;;;;59.28;23.25;;;4.30;99.90;;;;;;5035638;28;20056;-80
2022/01/19 06:24:15;;;;;;;62.97;24.35;;;5.40;99.90;;;;;;5060965;28;20126;-80
2022/01/19 06:26:41;;;;;;;52.08;22.52;;;5.00;99.90;;;;;;5044882;28;20048;-79
2022/01/19 06:29:06;;;;;;;60.10;23.13;;;4.10;99.90;;;;;;5027743;28;20051;-79
2022/01/19 06:31:32;;;;;;;50.30;21.92;;;4.30;99.90;;;;;;5028758;28;20047;-80
2022/01/19 06:33:58;;;;;;;63.17;23.00;;;4.60;99.90;;;;;;5058727;28;20448;-80
2022/01/19 06:36:24;;;;;;;56.67;22.92;;;4.80;99.90;;;;;;5050973;28;20513;-79
2022/01/19 06:38:50;;;;;;;50.75;23.13;;;4.30;99.90;;;;;;5033910;28;20044;-81
2022/01/19 06:41:15;;;;;;;58.83;24.23;;;4.30;99.90;;;;;;5042809;28;20055;-80
2022/01/19 06:43:41;;;;;;;56.78;24.20;;;4.30;99.90;;;;;;5032833;28;20052;-79
2022/01/19 06:46:07;;;;;;;54.65;23.33;;;4.30;99.90;;;;;;5025883;28;20581;-80
2022/01/19 06:48:33;;;;;;;52.72;22.95;;;4.30;99.90;;;;;;5050744;28;20048;-79
2022/01/19 06:50:58;;;;;;;48.25;22.75;;;4.30;99.90;;;;;;5050601;28;20060;-80
2022/01/19 06:53:24;;;;;;;59.25;24.80;;;4.30;99.90;;;;;;5050527;28;20040;-80
2022/01/19 06:55:50;;;;;;;53.88;23.45;;;4.30;99.90;;;;;;5059427;28;20056;-80
2022/01/19 06:58:16;;;;;;;59.33;25.13;;;5.40;99.90;;;;;;5050821;28;20052;-80
2022/01/19 07:00:42;;;;;;;60.20;23.98;;;4.30;99.90;;;;;;5051269;28;20129;-80
2022/01/19 07:03:09;;;;;;;61.45;25.50;;;4.90;99.90;;;;;;5033031;28;20044;-79
2022/01/19 07:05:34;;;;;;;55.10;22.67;;;4.90;99.90;;;;;;5050776;28;20448;-80
2022/01/19 07:08:00;;;;;;;59.35;24.10;;;4.30;99.90;;;;;;5049676;28;20197;-80
2022/01/19 07:10:31;;;;;;;61.92;24.40;;;4.30;99.90;;;;;;5067827;28;20043;-80
2022/01/19 07:13:01;;;;;;;59.85;23.65;;;4.30;99.90;;;;;;5041088;28;20126;-79
2022/01/19 07:15:26;;;;;;;54.55;23.48;;;4.30;99.90;;;;;;5050267;28;20052;-82
2022/01/19 07:17:52;;;;;;;58.97;24.10;;;4.30;99.90;;;;;;5050442;28;20546;-82
2022/01/19 07:20:18;;;;;;;51.88;24.00;;;4.30;99.90;;;;;;5034254;28;20087;-80
2022/01/19 07:22:44;;;;;;;56.10;24.52;;;4.30;99.90;;;;;;5049044;28;20806;-80
2022/01/19 07:25:10;;;;;;;56.30;23.20;;;4.30;99.90;;;;;;5033552;28;20044;-80
2022/01/19 07:27:36;;;;;;;59.53;24.77;;;4.40;99.90;;;;;;5066886;28;20051;-80
2022/01/19 07:30:04;;;;;;;51.70;23.25;;;4.40;99.90;;;;;;5033359;28;20056;-80
2022/01/19 07:32:33;;;;;;;60.00;24.90;;;4.30;99.90;;;;;;5042051;28;20554;-79
2022/01/19 07:35:00;;;;;;;51.83;22.35;;;4.30;99.90;;;;;;5037804;28;20091;-79
2022/01/19 07:37:26;;;;;;;50.97;22.08;;;4.30;99.90;;;;;;5059199;28;20052;-80
2022/01/19 07:39:53;;;;;;;58.10;22.95;;;4.30;99.90;;;;;;5026972;28;20436;-80
2022/01/19 07:42:19;;;;;;;51.15;21.98;;;4.30;99.90;;;;;;5076546;28;20048;-80
2022/01/19 07:44:45;;;;;;;51.17;23.02;;;4.30;99.90;;;;;;5060794;28;20370;-80
2022/01/19 07:47:11;;;;;;;47.10;21.80;;;4.40;99.90;;;;;;5043172;28;20055;-80
2022/01/19 07:49:37;;;;;;;46.38;21.83;;;4.70;99.90;;;;;;5077115;28;20048;-80
2022/01/19 07:52:02;;;;;;;49.88;23.63;;;4.30;99.90;;;;;;5058616;28;20588;-80
2022/01/19 07:54:28;;;;;;;51.28;22.35;;;4.40;99.90;;;;;;5058478;28;20044;-80
2022/01/19 07:56:54;;;;;;;49.40;23.55;;;5.70;99.90;;;;;;5043318;28;20044;-81
2022/01/19 07:59:20;;;;;;;57.85;23.13;;;4.40;99.90;;;;;;5030840;28;20041;-80
2022/01/19 08:01:46;;;;;;;49.10;21.52;;;4.40;99.90;;;;;;5064124;28;20083;-80
2022/01/19 08:04:12;;;;;;;48.78;21.38;;;4.40;99.90;;;;;;5063824;28;20056;-80
2022/01/19 08:06:39;;;;;;;48.03;21.92;;;5.30;99.90;;;;;;5063210;28;20075;-81
2022/01/19 08:09:04;;;;;;;45.33;21.55;;;4.50;99.90;;;;;;5062747;28;20033;-82
2022/01/19 08:11:30;;;;;;;47.10;21.65;;;4.40;99.90;;;;;;5065742;28;20044;-80
2022/01/19 08:13:56;;;;;;;48.05;22.30;;;4.40;99.90;;;;;;5045257;28;20493;-81
2022/01/19 08:16:22;;;;;;;51.85;22.35;;;4.40;99.90;;;;;;5064063;28;20052;-80
2022/01/19 08:18:48;;;;;;;44.35;21.20;;;5.30;99.90;;;;;;5063551;28;20052;-80
2022/01/19 08:21:15;;;;;;;44.90;21.38;;;4.50;99.90;;;;;;5046359;28;20048;-80
2022/01/19 08:23:40;;;;;;;43.67;21.13;;;5.10;99.90;;;;;;5080702;28;20052;-80
2022/01/19 08:26:06;;;;;;;42.10;21.42;;;4.50;99.90;;;;;;5063086;28;20478;-80
2022/01/19 08:28:32;;;;;;;50.38;21.98;;;4.70;99.90;;;;;;5046498;28;20041;-81
2022/01/19 08:30:58;;;;;;;45.97;22.23;;;4.50;99.90;;;;;;5047208;28;21006;-81
2022/01/19 08:33:24;;;;;;;44.95;20.95;;;4.50;99.90;;;;;;5079560;28;20056;-80
2022/01/19 08:35:51;;;;;;;50.00;22.30;;;4.70;99.90;;;;;;5039776;28;20060;-81
2022/01/19 08:38:17;;;;;;;46.15;22.27;;;4.50;99.90;;;;;;5069384;28;20278;-81
2022/01/19 08:40:44;;;;;;;38.22;19.75;;;4.60;99.90;;;;;;5030375;28;20052;-80
2022/01/19 08:43:09;;;;;;;47.22;22.05;;;5.00;99.90;;;;;;5034703;28;20482;-80
2022/01/19 08:45:36;;;;;;;43.30;21.20;;;4.60;99.90;;;;;;5053991;28;20051;-80
2022/01/19 08:48:02;;;;;;;43.75;20.70;;;4.60;99.90;;;;;;5068686;28;20166;-81
2022/01/19 08:50:29;;;;;;;41.80;19.80;;;4.60;99.90;;;;;;5053106;28;20040;-80
2022/01/19 08:52:55;;;;;;;38.17;20.05;;;6.00;99.90;;;;;;5052287;28;20052;-80
2022/01/19 08:55:21;;;;;;;36.67;19.30;;;4.70;99.90;;;;;;5044057;28;20512;-80
2022/01/19 08:57:47;;;;;;;38.08;20.30;;;4.80;99.90;;;;;;5052755;28;20391;-80
2022/01/19 09:00:15;;;;;;;38.53;19.45;;;4.80;99.90;;;;;;5069498;28;20056;-80
2022/01/19 09:02:41;;;;;;;41.05;20.63;;;4.90;99.90;;;;;;5068121;28;20051;-81
2022/01/19 09:05:07;;;;;;;39.03;20.40;;;4.90;99.90;;;;;;5052957;28;20063;-81
2022/01/19 09:07:33;;;;;;;36.90;20.05;;;4.90;99.90;;;;;;5069151;28;20048;-80
2022/01/19 09:09:59;;;;;;;42.22;21.20;;;4.90;99.90;;;;;;5044689;28;20048;-81
2022/01/19 09:12:25;;;;;;;38.08;20.33;;;4.90;99.90;;;;;;5034677;28;20194;-80
2022/01/19 09:14:51;;;;;;;40.95;21.30;;;4.90;99.90;;;;;;5051902;28;20491;-81
2022/01/19 09:17:17;;;;;;;37.55;20.80;;;4.90;99.90;;;;;;5043226;28;20052;-81
2022/01/19 09:19:43;;;;;;;40.70;21.88;;;5.10;99.90;;;;;;5053100;28;20139;-81
2022/01/19 09:22:10;;;;;;;41.47;20.55;;;4.80;99.90;;;;;;5044393;28;20048;-82
2022/01/19 09:24:38;;;;;;;41.45;21.23;;;5.00;99.90;;;;;;5044674;28;20048;-81
2022/01/19 09:27:05;;;;;;;42.30;22.10;;;5.00;99.90;;;;;;5051667;28;20059;-82
2022/01/19 09:29:31;;;;;;;44.28;22.05;;;5.00;99.90;;;;;;5044419;28;20401;-81
2022/01/19 09:32:00;;;;;;;38.42;21.45;;;5.20;99.90;;;;;;5019053;28;20051;-81
2022/01/19 09:34:27;;;;;;;41.08;22.50;;;5.10;99.90;;;;;;5044336;28;20052;-81
2022/01/19 09:36:53;;;;;;;41.38;21.77;;;5.10;99.90;;;;;;5035952;28;20532;-81
2022/01/19 09:39:21;;;;;;;42.88;21.02;;;5.10;99.90;;;;;;5052178;28;20044;-80
2022/01/19 09:41:48;;;;;;;39.63;21.35;;;5.20;99.90;;;;;;5052322;28;20079;-81
2022/01/19 09:44:20;;;;;;;42.53;21.10;;;6.00;99.90;;;;;;5067030;28;20083;-81
2022/01/19 09:46:46;;;;;;;37.25;21.33;;;5.20;99.90;;;;;;5068457;28;20071;-81
2022/01/19 09:49:13;;;;;;;40.63;20.98;;;5.40;99.90;;;;;;5051883;28;20106;-81
2022/01/19 09:51:43;;;;;;;37.15;20.85;;;5.90;99.90;;;;;;5068574;28;20044;-81
2022/01/19 09:54:12;;;;;;;37.15;20.27;;;5.30;99.90;;;;;;5067250;28;20458;-80
2022/01/19 09:56:38;;;;;;;32.47;17.65;;;5.30;99.90;;;;;;5052187;28;20048;-81
2022/01/19 09:59:06;;;;;;;34.22;17.27;;;5.70;99.90;;;;;;5035016;28;20059;-81
2022/01/19 10:01:31;;;;;;;33.05;16.20;;;5.40;99.90;;;;;;5067949;28;20049;-80
2022/01/19 10:03:57;;;;;;;26.90;14.30;;;6.10;99.90;;;;;;5051455;28;20409;-81
2022/01/19 10:06:24;;;;;;;17.98;9.02;;;5.50;99.90;;;;;;5034674;28;20123;-81
2022/01/19 10:08:54;;;;;;;17.80;8.13;;;5.50;99.90;;;;;;5035223;28;20052;-81
2022/01/19 10:16:59;;;;;;;9.15;3.92;;;5.60;99.90;;;;;;5068302;28;20048;-81
2022/01/19 10:19:36;;;;;;;10.43;4.10;;;5.70;99.90;;;;;;5050048;28;20044;-81
2022/01/19 10:22:18;;;;;;;11.90;4.00;;;5.80;99.90;;;;;;5042758;28;20116;-81
2022/01/19 10:24:57;;;;;;;14.57;4.25;;;5.80;99.90;;;;;;5050884;28;20052;-81
2022/01/19 10:27:23;;;;;;;11.32;3.95;;;5.90;99.90;;;;;;5067002;28;20452;-81
2022/01/19 10:29:51;;;;;;;10.38;4.03;;;6.00;99.90;;;;;;5068263;28;20051;-81
2022/01/19 10:32:20;;;;;;;12.13;4.55;;;6.00;99.90;;;;;;5065968;28;20051;-81
2022/01/19 10:34:46;;;;;;;15.25;4.28;;;6.10;99.90;;;;;;5041764;28;20053;-81
2022/01/19 10:37:12;;;;;;;11.15;4.38;;;6.20;99.90;;;;;;5050293;28;20060;-81
2022/01/19 10:39:45;;;;;;;12.00;4.32;;;6.20;99.90;;;;;;5050857;28;20076;-81
2022/01/19 10:42:16;;;;;;;11.63;4.07;;;6.30;99.90;;;;;;5074940;28;20040;-82
2022/01/19 10:44:44;;;;;;;9.95;3.70;;;6.40;99.90;;;;;;5050828;28;20488;-81
2022/01/19 10:47:10;;;;;;;11.50;4.30;;;6.60;99.90;;;;;;5042950;28;20059;-82
2022/01/19 10:49:54;;;;;;;10.57;4.05;;;6.80;99.90;;;;;;5059099;28;20436;-82
2022/01/19 10:52:37;;;;;;;11.02;4.45;;;7.10;99.90;;;;;;5049819;28;20082;-81
2022/01/19 10:55:26;;;;;;;11.05;3.75;;;7.60;99.90;;;;;;5067325;28;20041;-81
2022/01/19 10:57:53;;;;;;;8.95;4.50;;;7.40;99.90;;;;;;5049836;28;20707;-81
2022/01/19 11:00:19;;;;;;;9.77;4.63;;;7.20;99.90;;;;;;5050225;28;20056;-81
2022/01/19 11:02:47;;;;;;;13.65;4.32;;;7.00;99.90;;;;;;5049815;28;20543;-81
2022/01/19 11:05:13;;;;;;;14.05;5.10;;;6.80;99.90;;;;;;5066775;28;20063;-81
2022/01/19 11:07:39;;;;;;;14.73;4.90;;;7.10;99.90;;;;;;5067219;28;20036;-81
2022/01/19 11:10:12;;;;;;;15.77;4.47;;;6.50;99.90;;;;;;5067503;28;20152;-81
2022/01/19 11:12:48;;;;;;;15.30;4.20;;;6.40;99.90;;;;;;5049675;28;20454;-81
2022/01/19 11:15:18;;;;;;;9.45;3.90;;;6.30;99.90;;;;;;5050083;28;20405;-81
2022/01/19 11:17:45;;;;;;;9.77;4.15;;;7.40;99.90;;;;;;5033967;28;20420;-81
2022/01/19 11:20:15;;;;;;;13.25;4.80;;;6.10;99.90;;;;;;5066260;28;20075;-82
2022/01/19 11:23:02;;;;;;;17.88;5.53;;;6.10;99.90;;;;;;5043431;28;20053;-81
2022/01/19 11:25:51;;;;;;;12.30;5.18;;;6.10;99.90;;;;;;5049315;28;20862;-81
2022/01/19 11:28:25;;;;;;;15.23;5.13;;;6.00;99.90;;;;;;5049179;28;20040;-81
2022/01/19 11:30:55;;;;;;;15.80;5.30;;;6.10;99.90;;;;;;5043878;28;20095;-81
2022/01/19 11:33:26;;;;;;;13.85;5.30;;;6.40;99.90;;;;;;5065241;28;20048;-81
2022/01/19 11:35:58;;;;;;;14.63;4.97;;;6.40;99.90;;;;;;5049163;28;20418;-81
2022/01/19 11:38:33;;;;;;;11.60;4.40;;;6.40;99.90;;;;;;5050142;28;20101;-81
2022/01/19 11:41:02;;;;;;;14.83;4.57;;;5.90;99.90;;;;;;5050304;28;20060;-81
2022/01/19 11:43:30;;;;;;;14.40;4.45;;;6.00;99.90;;;;;;5041469;28;20405;-81
2022/01/19 11:45:57;;;;;;;18.17;4.55;;;4.60;99.90;;;;;;5065915;28;20045;-81
2022/01/19 11:48:29;;;;;;;17.92;4.95;;;6.00;99.90;;;;;;5049243;28;20127;-81
2022/01/19 11:51:21;;;;;;;14.27;4.13;;;7.00;99.90;;;;;;5049543;28;20438;-81
2022/01/19 11:54:12;;;;;;;10.88;4.38;;;6.00;99.90;;;;;;5048245;28;20041;-81
2022/01/19 11:57:00;;;;;;;13.20;4.50;;;6.00;99.90;;;;;;5066719;28;20041;-81
2022/01/19 11:59:46;;;;;;;11.13;4.50;;;6.10;99.90;;;;;;5041507;28;20052;-81
2022/01/19 12:02:20;;;;;;;18.83;4.50;;;6.10;99.90;;;;;;5049311;28;20052;-81
2022/01/19 12:05:12;;;;;;;14.02;4.65;;;6.00;99.90;;;;;;5050166;28;20084;-81
2022/01/19 12:07:41;;;;;;;12.63;4.55;;;6.10;99.90;;;;;;5075892;28;20504;-81
2022/01/19 12:10:16;;;;;;;18.23;4.70;;;6.10;99.90;;;;;;5050022;28;20124;-81
2022/01/19 12:13:07;;;;;;;11.27;4.30;;;5.20;99.90;;;;;;5065758;28;20056;-81
2022/01/19 12:15:59;;;;;;;13.13;4.55;;;6.30;99.90;;;;;;5065620;28;20052;-81
2022/01/19 12:18:51;;;;;;;19.13;4.80;;;6.40;99.90;;;;;;5066431;28;20044;-81
2022/01/19 12:21:32;;;;;;;13.10;4.38;;;6.50;99.90;;;;;;5057802;28;20047;-82
2022/01/19 12:24:26;;;;;;;20.83;5.05;;;6.40;99.90;;;;;;5057783;28;20055;-81
2022/01/19 12:26:59;;;;;;;10.07;3.83;;;6.40;99.90;;;;;;5049984;28;20059;-81
2022/01/19 12:29:37;;;;;;;19.58;4.88;;;6.40;99.90;;;;;;5041332;28;20113;-81
2022/01/19 12:32:26;;;;;;;14.05;4.40;;;6.40;99.90;;;;;;5049186;28;20052;-81
2022/01/19 12:34:56;;;;;;;19.83;4.53;;;6.50;99.90;;;;;;5042385;28;20489;-81
2022/01/19 12:37:33;;;;;;;11.40;4.38;;;6.50;99.90;;;;;;5043081;28;20083;-81
2022/01/19 12:40:17;;;;;;;11.77;4.15;;;6.50;99.90;;;;;;5076349;28;20048;-81
2022/01/19 12:42:49;;;;;;;16.58;4.95;;;6.40;99.90;;;;;;5057769;28;20134;-81
2022/01/19 12:45:27;;;;;;;13.43;4.95;;;6.40;99.90;;;;;;5069199;28;20098;-82
2022/01/19 12:48:01;;;;;;;12.68;4.35;;;6.30;99.90;;;;;;5078788;28;20121;-81
2022/01/19 12:50:27;;;;;;;18.52;4.60;;;6.50;99.90;;;;;;5062673;28;20066;-81
2022/01/19 12:52:58;;;;;;;17.75;4.70;;;6.30;99.90;;;;;;5078959;28;20062;-81
2022/01/19 12:55:30;;;;;;;17.15;5.32;;;6.20;99.90;;;;;;5079072;28;20156;-80
2022/01/19 12:57:57;;;;;;;14.10;5.35;;;6.20;99.90;;;;;;5045753;28;20063;-81
2022/01/19 13:00:26;;;;;;;16.20;5.22;;;6.20;99.90;;;;;;5045935;28;20055;-81
2022/01/19 13:02:52;;;;;;;13.85;4.97;;;6.20;99.90;;;;;;5061336;28;20054;-81
2022/01/19 13:05:20;;;;;;;19.67;6.07;;;6.30;99.90;;;;;;5078902;28;20052;-81
2022/01/19 13:07:56;;;;;;;17.30;4.95;;;6.20;99.90;;;;;;5060944;28;20054;-81
2022/01/19 13:11:03;;;;;;;;;;;6.10;99.90;;;;;;5047086;28;20052;-81
2022/01/19 13:13:26;;;;;;;17.73;5.70;;;6.10;99.90;;;;;;5073635;28;20277;-82
2022/01/19 13:15:55;;;;;;;24.85;6.28;;;6.10;99.90;;;;;;5047608;28;20082;-80
2022/01/19 13:18:37;;;;;;;16.13;6.10;;;6.00;99.90;;;;;;5061556;28;20047;-81
2022/01/19 13:21:10;;;;;;;22.17;6.28;;;6.00;99.90;;;;;;5078466;28;20131;-81
2022/01/19 13:23:57;;;;;;;18.75;6.15;;;6.00;99.90;;;;;;5077175;28;20048;-81
2022/01/19 13:26:24;;;;;;;24.90;6.32;;;6.00;99.90;;;;;;5079053;28;20102;-80
2022/01/19 13:28:50;;;;;;;23.00;7.20;;;6.00;99.90;;;;;;5062305;28;20049;-81
2022/01/19 13:31:19;;;;;;;19.42;6.20;;;6.00;99.90;;;;;;5078802;28;20086;-81
2022/01/19 13:33:55;;;;;;;23.52;6.72;;;6.00;99.90;;;;;;5061411;28;20052;-81
2022/01/19 13:36:26;;;;;;;24.50;7.10;;;5.90;99.90;;;;;;5059448;28;20056;-81
2022/01/19 13:38:55;;;;;;;28.58;7.70;;;6.00;99.90;;;;;;5062047;28;20123;-80
2022/01/19 13:41:22;;;;;;;29.00;7.57;;;6.00;99.90;;;;;;5061159;28;20040;-81
2022/01/19 13:43:48;;;;;;;24.83;7.75;;;5.90;99.90;;;;;;5079490;28;20048;-81
2022/01/19 13:46:25;;;;;;;26.02;8.80;;;6.10;99.90;;;;;;5062312;28;20609;-81
2022/01/19 13:49:00;;;;;;;26.45;8.15;;;6.00;99.90;;;;;;5062663;28;20389;-81
2022/01/19 13:51:29;;;;;;;31.38;9.15;;;6.40;99.90;;;;;;5073836;28;20040;-81
2022/01/19 13:53:59;;;;;;;34.00;9.65;;;6.00;99.90;;;;;;5076353;28;20507;-81
2022/01/19 13:56:35;;;;;;;33.97;8.73;;;6.00;99.90;;;;;;5044608;28;20083;-81
2022/01/19 13:59:08;;;;;;;31.10;10.35;;;6.00;99.90;;;;;;5062928;28;20159;-81
2022/01/19 14:01:56;;;;;;;36.83;11.02;;;6.00;99.90;;;;;;5061070;28;20048;-81
2022/01/19 14:04:23;;;;;;;30.65;11.05;;;6.10;99.90;;;;;;5060834;28;20478;-81
2022/01/19 14:06:49;;;;;;;39.00;11.13;;;6.20;99.90;;;;;;5059939;28;20044;-81
2022/01/19 14:09:24;;;;;;;38.60;11.68;;;6.10;99.90;;;;;;5077215;28;20136;-81
2022/01/19 14:12:12;;;;;;;37.50;13.50;;;6.90;99.90;;;;;;5060508;28;20204;-81